Time;durP1;ratioP1;P1;durP2;ratioP2;P2;SDS_P1;SDS_P2;PMS_P1;PMS_P2;Temp;Humidity;BMP_temperature;BMP_pressure;BME280_temperature;BME280_humidity;BME280_pressure;Samples;Min_cycle;Max_cycle;Signal;HPM_P1;HPM_P2
2022/01/08 11:49:37;;;;;;;4.83;3.17;;;;;;;3.78;86.82;98648.75;5107433;28;20572;-88
2022/01/08 11:52:19;;;;;;;3.73;2.47;;;;;;;4.25;86.00;98643.41;5088947;28;40123;-89
2022/01/08 11:54:48;;;;;;;2.80;2.50;;;;;;;4.75;83.84;98661.44;5103873;28;41986;-87
2022/01/08 11:57:19;;;;;;;4.67;2.23;;;;;;;4.98;81.20;98658.69;5090125;28;42400;-86
2022/01/08 11:59:48;;;;;;;4.23;3.10;;;;;;;5.17;79.29;98666.63;5090010;28;41101;-84
2022/01/08 12:02:16;;;;;;;3.70;2.30;;;;;;;5.02;77.84;98642.75;5090031;28;38879;-88
2022/01/08 12:04:53;;;;;;;2.77;1.63;;;;;;;5.01;77.17;98646.28;5092456;28;41802;-86
2022/01/08 12:07:36;;;;;;;3.37;1.47;;;;;;;5.20;76.58;98651.56;5089080;28;41579;-87
2022/01/08 12:10:11;;;;;;;2.47;1.43;;;;;;;5.22;76.60;98630.50;5091401;28;41124;-89
2022/01/08 12:12:50;;;;;;;2.20;1.57;;;;;;;5.47;76.34;98638.13;5090477;28;39128;-86
2022/01/08 12:15:39;;;;;;;3.57;1.93;;;;;;;5.67;76.45;98644.22;5087757;28;41045;-86
2022/01/08 12:18:08;;;;;;;2.23;1.60;;;;;;;5.75;75.25;98635.97;5089737;28;41337;-84
2022/01/08 12:20:49;;;;;;;1.47;1.33;;;;;;;5.89;74.34;98651.97;5089095;28;42376;-85
2022/01/08 12:23:35;;;;;;;3.60;2.00;;;;;;;5.96;74.50;98627.09;5103845;28;39132;-88
2022/01/08 12:26:10;;;;;;;3.27;1.90;;;;;;;6.17;73.69;98632.28;5090201;28;42461;-86
2022/01/08 12:28:53;;;;;;;2.33;1.93;;;;;;;6.24;72.78;98636.28;5105789;28;41938;-85
2022/01/08 12:31:26;;;;;;;2.67;1.57;;;;;;;6.21;72.16;98625.91;5104506;28;42923;-86
2022/01/08 12:34:49;;;;;;;2.43;1.33;;;;;;;6.40;72.03;98639.88;5088362;28;39864;-88
2022/01/08 12:37:20;;;;;;;3.33;1.83;;;;;;;6.42;72.18;98635.41;5088236;28;41026;-90
2022/01/08 12:39:53;;;;;;;1.50;1.40;;;;;;;6.37;71.31;98621.63;5092462;28;43068;-87
2022/01/08 12:42:45;;;;;;;4.23;1.67;;;;;;;6.33;70.86;98620.06;5088719;28;41243;-84
2022/01/08 12:45:18;;;;;;;2.70;1.83;;;;;;;6.18;70.62;98600.66;5085528;28;39128;-86
2022/01/08 12:47:55;;;;;;;4.67;1.97;;;;;;;6.08;71.16;98591.47;5088242;28;42069;-89
2022/01/08 12:50:32;;;;;;;1.60;1.50;;;;;;;5.99;71.48;98584.91;5097834;28;41804;-85
2022/01/08 12:53:21;;;;;;;3.17;2.63;;;;;;;6.02;71.14;98605.78;5081894;28;41193;-90
2022/01/08 12:56:09;;;;;;;1.97;1.70;;;;;;;6.03;71.43;98591.72;5092541;28;39247;-87
2022/01/08 12:58:44;;;;;;;3.70;1.20;;;;;;;6.18;71.29;98594.53;5090439;28;41123;-88
2022/01/08 13:01:14;;;;;;;2.07;1.60;;;;;;;6.32;69.84;98597.31;5091581;28;42871;-89
2022/01/08 13:03:43;;;;;;;1.70;1.60;;;;;;;6.24;70.52;98567.94;5077918;28;41144;-87
2022/01/08 13:06:32;;;;;;;3.00;2.07;;;;;;;6.44;69.78;98584.41;5077563;28;39671;-87
2022/01/08 13:09:03;;;;;;;2.50;1.80;;;;;;;6.29;68.90;98568.56;5062034;28;41457;-89
2022/01/08 13:11:33;;;;;;;2.27;1.77;;;;;;;6.29;68.15;98586.97;5077658;28;41299;-89
2022/01/08 13:14:02;;;;;;;2.10;1.70;;;;;;;6.21;68.39;98558.41;5078345;28;42500;-87
2022/01/08 13:16:33;;;;;;;2.77;1.90;;;;;;;6.28;67.69;98585.25;5077540;28;39011;-85
2022/01/08 13:19:02;;;;;;;1.37;1.27;;;;;;;5.76;68.33;98503.66;5078143;28;40539;-90
2022/01/08 13:21:32;;;;;;;1.63;1.30;;;;;;;6.10;67.75;98561.56;5078312;28;42279;-83
2022/01/08 13:24:04;;;;;;;0.90;0.90;;;;;;;6.23;67.45;98569.69;5077062;28;40907;-89
2022/01/08 13:26:38;;;;;;;1.40;0.93;;;;;;;6.18;67.36;98541.97;5077400;28;40404;-91
2022/01/08 13:29:19;;;;;;;3.13;1.10;;;;;;;6.29;67.45;98565.94;5078445;28;40585;-87
2022/01/08 13:31:50;;;;;;;4.50;1.90;;;;;;;5.83;67.69;98494.56;5079937;28;41919;-89
2022/01/08 13:34:22;;;;;;;1.93;1.40;;;;;;;6.19;68.18;98555.00;5079623;28;41850;-86
2022/01/08 13:37:02;;;;;;;1.33;1.13;;;;;;;6.00;67.50;98538.44;5096017;28;40593;-87
2022/01/08 13:39:36;;;;;;;3.50;1.27;;;;;;;6.02;67.17;98545.34;5076943;28;40824;-87
2022/01/08 13:42:16;;;;;;;2.90;1.40;;;;;;;5.89;66.67;98523.19;5081856;28;41432;-90
2022/01/08 13:44:46;;;;;;;0.90;0.90;;;;;;;6.02;67.73;98529.56;5079034;28;41168;-88
2022/01/08 13:47:26;;;;;;;1.27;1.17;;;;;;;5.67;67.81;98467.34;5080342;28;38431;-88
2022/01/08 13:49:55;;;;;;;2.37;1.67;;;;;;;5.91;67.05;98531.88;5079406;28;40872;-87
2022/01/08 13:52:33;;;;;;;1.57;1.30;;;;;;;5.80;66.81;98528.88;5078993;28;41996;-85
2022/01/08 13:55:18;;;;;;;0.80;0.80;;;;;;;5.81;67.17;98517.41;5097595;28;41300;-91
2022/01/08 13:57:47;;;;;;;1.57;0.97;;;;;;;6.00;67.28;98530.56;5078500;28;39090;-87
2022/01/08 14:00:21;;;;;;;1.00;0.90;;;;;;;5.78;67.09;98514.97;5079958;28;40740;-91
2022/01/08 14:02:51;;;;;;;0.77;0.70;;;;;;;5.74;67.79;98511.63;5078398;28;41965;-89
2022/01/08 14:05:19;;;;;;;0.73;0.73;;;;;;;5.55;67.88;98467.94;5078013;28;41996;-87
2022/01/08 14:07:46;;;;;;;1.50;1.33;;;;;;;5.43;67.85;98453.63;5080621;28;38845;-87
2022/01/08 14:10:19;;;;;;;1.83;1.10;;;;;;;5.62;68.07;98503.47;5078321;28;40508;-91
2022/01/08 14:13:03;;;;;;;1.27;0.73;;;;;;;5.58;67.71;98509.78;5076761;28;41827;-85
2022/01/08 14:15:32;;;;;;;3.10;1.77;;;;;;;5.08;67.68;98431.66;5093733;28;42167;-86
2022/01/08 14:18:12;;;;;;;2.57;1.00;;;;;;;5.34;68.00;98482.94;5076876;28;40459;-86
2022/01/08 14:20:40;;;;;;;2.07;1.30;;;;;;;5.38;67.93;98493.22;5077374;28;40656;-86
2022/01/08 14:23:13;;;;;;;2.87;1.20;;;;;;;5.19;68.71;98434.66;5076867;28;41812;-87
2022/01/08 14:25:42;;;;;;;1.20;0.97;;;;;;;5.24;67.63;98437.03;5076436;28;41129;-89
2022/01/08 14:28:22;;;;;;;5.17;1.30;;;;;;;5.72;68.36;98491.59;5076979;28;41241;-91
2022/01/08 14:30:52;;;;;;;3.70;1.30;;;;;;;5.80;68.12;98473.72;5092404;28;42386;-87
2022/01/08 14:33:20;;;;;;;1.47;1.20;;;;;;;5.83;68.05;98463.03;5076105;28;42561;-86
2022/01/08 14:35:59;;;;;;;1.60;1.30;;;;;;;5.91;67.33;98458.28;5076263;28;41714;-88
2022/01/08 14:38:27;;;;;;;1.13;1.03;;;;;;;5.98;68.02;98467.56;5075787;28;39995;-86
2022/01/08 14:40:56;;;;;;;2.17;1.27;;;;;;;5.89;67.65;98446.16;5076342;28;41105;-87
2022/01/08 14:43:25;;;;;;;1.87;1.00;;;;;;;5.81;67.48;98427.25;5077021;28;41875;-86
2022/01/08 14:45:53;;;;;;;2.13;0.80;;;;;;;5.65;67.42;98429.78;5077922;28;43598;-87
2022/01/08 14:48:23;;;;;;;1.17;1.07;;;;;;;5.48;68.24;98419.25;5088188;28;40299;-89
2022/01/08 14:50:52;;;;;;;1.83;1.33;;;;;;;5.33;68.23;98419.06;5092876;28;41489;-84
2022/01/08 14:53:20;;;;;;;0.80;0.60;;;;;;;5.28;67.79;98428.97;5081420;28;43274;-89
2022/01/08 14:55:49;;;;;;;2.00;1.20;;;;;;;5.20;68.44;98415.34;5076530;28;42319;-88
2022/01/08 14:58:19;;;;;;;1.97;0.90;;;;;;;5.25;69.18;98423.00;5076516;28;39398;-86
2022/01/08 15:00:49;;;;;;;1.53;0.90;;;;;;;5.10;69.51;98397.47;5075630;28;41600;-87
2022/01/08 15:03:17;;;;;;;1.20;1.10;;;;;;;5.04;69.38;98388.13;5075010;28;41699;-90
2022/01/08 15:05:44;;;;;;;3.90;1.33;;;;;;;4.96;69.85;98371.88;5075074;28;40903;-85
2022/01/08 15:08:12;;;;;;;1.77;0.90;;;;;;;4.99;69.65;98379.63;5079944;28;39417;-87
2022/01/08 15:10:40;;;;;;;1.77;1.20;;;;;;;5.03;70.40;98381.19;5075822;28;41613;-86
2022/01/08 15:13:08;;;;;;;3.50;1.17;;;;;;;4.83;70.06;98370.75;5076786;28;41333;-84
2022/01/08 15:15:37;;;;;;;1.03;0.93;;;;;;;4.81;70.50;98359.53;5092149;28;42094;-87
2022/01/08 15:18:05;;;;;;;1.00;0.90;;;;;;;4.69;70.81;98337.34;5075694;28;39347;-87
2022/01/08 15:20:33;;;;;;;1.20;1.10;;;;;;;4.62;70.83;98343.78;5075044;28;40580;-87
2022/01/08 15:23:03;;;;;;;3.30;1.03;;;;;;;4.45;71.35;98336.69;5075052;28;42223;-85
2022/01/08 15:25:31;;;;;;;1.47;0.93;;;;;;;4.19;71.47;98321.31;5091669;28;43157;-85
2022/01/08 15:28:00;;;;;;;3.77;1.67;;;;;;;4.21;71.84;98349.13;5075400;28;39039;-89
2022/01/08 15:30:29;;;;;;;2.40;1.20;;;;;;;3.99;72.44;98332.69;5076143;28;41502;-89
2022/01/08 15:32:58;;;;;;;1.63;1.20;;;;;;;3.94;73.03;98335.53;5075710;28;41835;-90
2022/01/08 15:35:26;;;;;;;2.23;1.17;;;;;;;3.97;73.35;98329.28;5075482;28;41045;-88
2022/01/08 15:37:54;;;;;;;2.50;1.20;;;;;;;3.97;73.33;98321.41;5076174;28;39122;-88
2022/01/08 15:40:22;;;;;;;4.47;1.40;;;;;;;4.05;73.26;98336.81;5075344;28;40571;-86
2022/01/08 15:42:50;;;;;;;2.03;1.00;;;;;;;4.04;73.39;98325.47;5092669;28;41626;-87
2022/01/08 15:45:17;;;;;;;4.90;1.20;;;;;;;4.02;73.96;98318.59;5075828;28;41207;-85
2022/01/08 15:47:45;;;;;;;3.90;1.20;;;;;;;4.04;73.87;98308.91;5092580;28;40776;-86
2022/01/08 15:50:14;;;;;;;1.17;1.00;;;;;;;3.97;73.74;98298.69;5087258;28;41688;-84
2022/01/08 15:52:42;;;;;;;1.60;1.00;;;;;;;3.97;73.96;98300.47;5110745;28;41483;-82
2022/01/08 15:55:11;;;;;;;1.20;1.00;;;;;;;3.88;73.80;98283.41;5095091;28;42476;-83
2022/01/08 15:57:39;;;;;;;2.50;1.40;;;;;;;3.95;73.98;98287.47;5095490;28;39652;-82
2022/01/08 16:00:08;;;;;;;3.07;1.47;;;;;;;3.92;73.98;98284.13;5109542;28;40710;-85
